createdAt,value
2019-02-20T00:01:13.027Z,5.10
2019-02-20T00:03:42.279Z,5.10
2019-02-20T00:06:11.509Z,5.20
2019-02-20T00:08:40.879Z,5.20
2019-02-20T00:11:10.191Z,5.30
2019-02-20T00:13:39.385Z,5.40
2019-02-20T00:16:08.577Z,5.40
2019-02-20T00:18:37.859Z,5.50
2019-02-20T00:21:07.143Z,5.50
2019-02-20T00:23:36.352Z,5.60
2019-02-20T00:26:05.753Z,5.70
2019-02-20T00:28:34.946Z,5.70
2019-02-20T00:31:04.197Z,5.60
2019-02-20T00:33:33.452Z,5.60
2019-02-20T00:36:02.808Z,5.60
2019-02-20T00:38:32.085Z,5.60
2019-02-20T00:41:01.294Z,5.60
2019-02-20T00:43:30.665Z,5.60
2019-02-20T00:46:12.176Z,5.60
2019-02-20T00:49:09.664Z,5.70
2019-02-20T00:52:00.960Z,5.70
2019-02-20T00:54:30.326Z,5.60
2019-02-20T00:56:59.538Z,5.60
2019-02-20T00:59:28.799Z,5.60
2019-02-20T01:01:58.412Z,5.60
2019-02-20T01:04:27.713Z,5.60
2019-02-20T01:06:56.988Z,5.70
2019-02-20T01:09:26.182Z,5.70
2019-02-20T01:11:55.448Z,5.80
2019-02-20T01:14:24.873Z,5.80
2019-02-20T01:16:54.187Z,5.80
2019-02-20T01:19:23.521Z,5.80
2019-02-20T01:21:52.741Z,5.80
2019-02-20T01:24:21.965Z,5.80
2019-02-20T01:26:51.153Z,5.80
2019-02-20T01:29:20.449Z,5.80
2019-02-20T01:31:50.056Z,5.80
2019-02-20T01:34:19.246Z,5.80
2019-02-20T01:36:48.481Z,5.80
2019-02-20T01:39:17.761Z,5.80
2019-02-20T01:41:47.033Z,5.80
2019-02-20T01:44:16.485Z,5.80
2019-02-20T01:46:45.763Z,5.80
2019-02-20T01:49:15.143Z,5.80
2019-02-20T01:51:45.090Z,5.80
2019-02-20T01:54:16.561Z,5.80
2019-02-20T01:56:45.945Z,5.80
2019-02-20T01:59:15.229Z,5.80
2019-02-20T02:01:44.484Z,5.80
2019-02-20T02:04:13.756Z,5.80
2019-02-20T02:06:42.994Z,5.90
2019-02-20T02:09:12.440Z,5.90
2019-02-20T02:11:41.637Z,5.90
2019-02-20T02:14:10.936Z,5.90
2019-02-20T02:16:40.128Z,5.90
2019-02-20T02:19:09.327Z,6.00
2019-02-20T02:21:38.565Z,5.90
2019-02-20T02:24:07.918Z,6.00
2019-02-20T02:26:37.215Z,6.00
2019-02-20T02:29:06.865Z,6.00
2019-02-20T02:31:36.087Z,5.90
2019-02-20T02:34:05.366Z,5.90
2019-02-20T02:36:34.606Z,5.90
2019-02-20T02:39:05.366Z,5.90
2019-02-20T02:41:34.640Z,5.90
2019-02-20T02:44:03.848Z,6.00
2019-02-20T02:46:33.193Z,5.90
2019-02-20T02:49:02.527Z,5.90
2019-02-20T02:51:31.778Z,6.00
2019-02-20T02:54:02.873Z,6.00
2019-02-20T02:56:32.170Z,5.90
2019-02-20T02:59:01.395Z,5.90
2019-02-20T03:01:30.709Z,5.90
2019-02-20T03:03:59.909Z,5.80
2019-02-20T03:06:29.227Z,5.70
2019-02-20T03:08:58.478Z,5.70
2019-02-20T03:11:27.666Z,5.70
2019-02-20T03:13:57.007Z,5.60
2019-02-20T03:16:26.289Z,5.70
2019-02-20T03:18:55.532Z,5.60
2019-02-20T03:21:24.777Z,5.70
2019-02-20T03:23:53.961Z,5.60
2019-02-20T03:26:23.223Z,5.60
2019-02-20T03:28:52.613Z,5.50
2019-02-20T03:31:22.037Z,5.50
2019-02-20T03:33:51.315Z,5.50
2019-02-20T03:36:20.625Z,5.60
2019-02-20T03:38:49.881Z,5.60
2019-02-20T03:41:19.101Z,5.60
2019-02-20T03:43:48.413Z,5.60
2019-02-20T03:46:17.623Z,5.50
2019-02-20T03:48:47.131Z,5.50
2019-02-20T03:51:16.420Z,5.50
2019-02-20T03:53:51.427Z,5.60
2019-02-20T03:56:16.614Z,5.60
2019-02-20T03:58:46.020Z,5.60
2019-02-20T04:01:15.204Z,5.60
2019-02-20T04:03:44.475Z,5.60
2019-02-20T04:06:13.701Z,5.60
2019-02-20T04:08:42.982Z,5.50
2019-02-20T04:11:12.398Z,5.50
2019-02-20T04:13:41.685Z,5.50
2019-02-20T04:16:10.977Z,5.50
2019-02-20T04:18:40.251Z,5.50
2019-02-20T04:21:09.513Z,5.50
2019-02-20T04:23:38.826Z,5.50
2019-02-20T04:26:09.828Z,5.40
2019-02-20T04:28:39.171Z,5.40
2019-02-20T04:31:08.369Z,5.40
2019-02-20T04:33:37.748Z,5.40
2019-02-20T04:36:06.937Z,5.30
2019-02-20T04:38:36.371Z,5.30
2019-02-20T04:41:05.804Z,5.20
2019-02-20T04:43:35.279Z,5.10
2019-02-20T04:46:04.521Z,5.10
2019-02-20T04:48:33.863Z,5.10
2019-02-20T04:51:03.221Z,5.00
2019-02-20T04:53:32.471Z,5.10
2019-02-20T04:56:01.860Z,5.00
2019-02-20T04:58:31.066Z,4.90
2019-02-20T05:01:00.282Z,4.90
2019-02-20T05:03:29.590Z,4.90
2019-02-20T05:05:58.782Z,4.80
2019-02-20T05:08:27.990Z,4.70
2019-02-20T05:10:57.266Z,4.70
2019-02-20T05:13:26.483Z,4.60
2019-02-20T05:15:55.744Z,4.60
2019-02-20T05:18:25.052Z,4.60
2019-02-20T05:20:54.246Z,4.60
2019-02-20T05:23:23.631Z,4.60
2019-02-20T05:25:52.960Z,4.60
2019-02-20T05:28:22.221Z,4.70
2019-02-20T05:30:51.646Z,4.70
2019-02-20T05:33:20.908Z,4.70
2019-02-20T05:35:50.096Z,4.70
2019-02-20T05:38:19.327Z,4.70
2019-02-20T05:40:48.572Z,4.80
2019-02-20T05:43:17.787Z,4.80
2019-02-20T05:45:46.992Z,4.80
2019-02-20T05:48:16.303Z,4.80
2019-02-20T05:50:45.706Z,4.80
2019-02-20T05:53:15.008Z,4.80
2019-02-20T05:55:44.293Z,4.70
2019-02-20T05:58:13.550Z,4.70
2019-02-20T06:00:43.058Z,4.80
2019-02-20T06:03:12.398Z,4.70
2019-02-20T06:05:41.596Z,4.70
2019-02-20T06:08:12.808Z,4.70
2019-02-20T06:10:42.018Z,4.70
2019-02-20T06:13:11.217Z,4.60
2019-02-20T06:15:40.413Z,4.60
2019-02-20T06:18:09.714Z,4.60
2019-02-20T06:20:38.911Z,4.60
2019-02-20T06:23:08.249Z,4.70
2019-02-20T06:25:37.582Z,4.70
2019-02-20T06:28:06.854Z,4.70
2019-02-20T06:30:36.129Z,4.70
2019-02-20T06:33:05.410Z,4.60
2019-02-20T06:35:34.695Z,4.60
2019-02-20T06:38:03.983Z,4.50
2019-02-20T06:40:33.242Z,4.50
2019-02-20T06:43:02.811Z,4.50
2019-02-20T06:45:32.224Z,4.50
2019-02-20T06:48:01.606Z,4.50
2019-02-20T06:50:30.886Z,4.50
2019-02-20T06:53:00.130Z,4.50
2019-02-20T06:55:29.404Z,4.50
2019-02-20T06:57:58.580Z,4.50
2019-02-20T07:00:27.842Z,4.50
2019-02-20T07:02:57.236Z,4.60
2019-02-20T07:05:37.501Z,4.70
2019-02-20T07:08:32.100Z,4.80
2019-02-20T07:11:26.650Z,4.80
2019-02-20T07:14:08.714Z,4.90
2019-02-20T07:17:14.932Z,5.00
2019-02-20T07:20:09.583Z,5.00
2019-02-20T07:23:02.545Z,5.10
2019-02-20T07:25:38.379Z,5.20
2019-02-20T07:28:48.240Z,5.30
2019-02-20T07:31:17.489Z,5.30
2019-02-20T07:33:46.749Z,5.40
2019-02-20T07:36:16.001Z,5.40
2019-02-20T07:38:45.294Z,5.50
2019-02-20T07:41:14.601Z,5.50
2019-02-20T07:43:43.907Z,5.50
2019-02-20T07:46:13.177Z,5.60
2019-02-20T07:48:42.447Z,5.60
2019-02-20T07:51:11.657Z,5.80
2019-02-20T07:53:40.869Z,5.90
2019-02-20T07:56:10.257Z,6.10
2019-02-20T07:58:39.565Z,6.20
2019-02-20T08:01:08.933Z,6.50
2019-02-20T08:03:38.216Z,6.60
2019-02-20T08:06:07.629Z,6.70
2019-02-20T08:08:36.838Z,6.80
2019-02-20T08:11:06.114Z,6.90
2019-02-20T08:13:39.352Z,7.00
2019-02-20T08:16:06.338Z,7.00
2019-02-20T08:18:35.589Z,7.10
2019-02-20T08:21:04.780Z,7.20
2019-02-20T08:23:34.005Z,7.30
2019-02-20T08:26:03.210Z,7.40
2019-02-20T08:28:32.479Z,7.50
2019-02-20T08:31:01.843Z,7.60
2019-02-20T08:33:31.148Z,7.60
2019-02-20T08:36:00.529Z,7.70
2019-02-20T08:38:29.741Z,7.70
2019-02-20T08:40:59.255Z,7.90
2019-02-20T08:43:28.665Z,8.00
2019-02-20T08:45:57.878Z,8.00
2019-02-20T08:48:27.081Z,8.00
2019-02-20T08:50:56.462Z,8.20
2019-02-20T08:53:25.709Z,8.30
2019-02-20T08:55:54.920Z,8.70
2019-02-20T08:58:43.201Z,9.10
2019-02-20T09:01:12.592Z,9.40
2019-02-20T09:03:41.937Z,9.50
2019-02-20T09:06:11.296Z,9.50
2019-02-20T09:08:40.491Z,9.60
2019-02-20T09:11:09.805Z,9.50
2019-02-20T09:13:39.129Z,9.50
2019-02-20T09:16:08.351Z,9.50
2019-02-20T09:18:37.621Z,9.50
2019-02-20T09:21:06.925Z,9.80
2019-02-20T09:23:36.225Z,10.00
2019-02-20T09:26:05.499Z,10.00
2019-02-20T09:28:34.797Z,10.10
2019-02-20T09:31:04.004Z,10.00
2019-02-20T09:33:33.306Z,10.10
2019-02-20T09:36:02.527Z,10.20
2019-02-20T09:38:31.893Z,10.30
2019-02-20T09:41:01.119Z,10.40
2019-02-20T09:43:30.444Z,11.10
2019-02-20T09:45:59.804Z,11.50
2019-02-20T09:48:29.098Z,11.90
2019-02-20T09:50:58.422Z,12.60
2019-02-20T09:53:27.652Z,12.70
2019-02-20T09:55:59.910Z,12.60
2019-02-20T09:58:29.315Z,12.40
2019-02-20T10:00:58.717Z,11.80
2019-02-20T10:03:27.996Z,11.90
2019-02-20T10:05:57.311Z,11.50
2019-02-20T10:08:26.587Z,11.50
2019-02-20T10:10:55.902Z,11.50
2019-02-20T10:13:25.253Z,11.30
2019-02-20T10:15:54.450Z,11.60
2019-02-20T10:18:23.682Z,11.70
2019-02-20T10:20:52.951Z,11.70
2019-02-20T10:23:22.275Z,11.80
2019-02-20T10:26:00.333Z,12.00
2019-02-20T10:28:22.952Z,11.80
2019-02-20T10:30:52.205Z,11.80
2019-02-20T10:33:21.531Z,11.80
2019-02-20T10:35:50.921Z,11.80
2019-02-20T10:38:20.203Z,11.80
2019-02-20T10:40:49.470Z,11.80
2019-02-20T10:43:18.855Z,11.90
2019-02-20T10:45:48.199Z,12.00
2019-02-20T10:48:17.560Z,11.90
2019-02-20T10:50:47.136Z,12.00
2019-02-20T10:53:16.400Z,11.90
2019-02-20T10:55:48.703Z,12.00
2019-02-20T10:58:18.311Z,12.00
2019-02-20T11:00:47.619Z,12.00
2019-02-20T11:03:17.086Z,12.00
2019-02-20T11:05:46.404Z,12.10
2019-02-20T11:08:15.751Z,12.20
2019-02-20T11:10:45.530Z,12.00
2019-02-20T11:13:14.848Z,11.90
2019-02-20T11:15:44.056Z,11.90
2019-02-20T11:18:13.330Z,12.00
2019-02-20T11:20:48.256Z,12.00
2019-02-20T11:23:13.569Z,12.10
2019-02-20T11:25:42.784Z,12.10
2019-02-20T11:28:12.056Z,11.90
2019-02-20T11:30:41.560Z,11.90
2019-02-20T11:33:11.015Z,12.10
2019-02-20T11:35:40.492Z,12.00
2019-02-20T11:38:09.775Z,12.10
2019-02-20T11:40:38.987Z,12.20
2019-02-20T11:43:08.275Z,12.10
2019-02-20T11:45:37.485Z,12.00
2019-02-20T11:48:06.752Z,12.00
2019-02-20T11:50:36.008Z,12.00
2019-02-20T11:53:05.346Z,11.90
2019-02-20T11:55:34.547Z,11.80
2019-02-20T11:58:03.859Z,11.80
2019-02-20T12:00:33.158Z,11.80
2019-02-20T12:03:02.483Z,11.70
2019-02-20T12:05:31.740Z,11.80
2019-02-20T12:08:01.019Z,11.70
2019-02-20T12:10:30.238Z,11.70
2019-02-20T12:12:59.569Z,11.80
2019-02-20T12:15:28.785Z,11.80
2019-02-20T12:17:58.133Z,11.90
2019-02-20T12:20:27.493Z,12.10
2019-02-20T12:22:56.769Z,12.20
2019-02-20T12:25:25.967Z,12.20
2019-02-20T12:27:55.247Z,12.30
2019-02-20T12:30:24.507Z,12.40
2019-02-20T12:32:53.793Z,12.30
2019-02-20T12:35:23.167Z,12.30
2019-02-20T12:37:52.370Z,12.30
2019-02-20T12:40:21.558Z,12.50
2019-02-20T12:42:50.764Z,12.50
2019-02-20T12:45:20.344Z,12.60
2019-02-20T12:47:49.712Z,12.60
2019-02-20T12:50:19.952Z,12.50
2019-02-20T12:52:49.178Z,12.50
2019-02-20T12:55:18.470Z,12.50
2019-02-20T12:57:47.708Z,12.50
2019-02-20T13:00:18.816Z,12.40
2019-02-20T13:02:48.008Z,12.30
2019-02-20T13:05:17.312Z,12.40
2019-02-20T13:07:47.109Z,12.40
2019-02-20T13:10:16.515Z,12.40
2019-02-20T13:12:46.845Z,12.40
2019-02-20T13:15:16.356Z,12.40
2019-02-20T13:17:45.671Z,12.40
2019-02-20T13:20:15.054Z,12.30
2019-02-20T13:22:44.558Z,12.40
2019-02-20T13:25:13.958Z,12.50
2019-02-20T13:27:43.300Z,12.50
2019-02-20T13:30:12.689Z,12.50
2019-02-20T13:32:41.905Z,12.60
2019-02-20T13:35:11.230Z,12.70
2019-02-20T13:37:59.576Z,12.70
2019-02-20T13:40:28.818Z,12.70
2019-02-20T13:42:58.103Z,12.90
2019-02-20T13:45:27.543Z,12.90
2019-02-20T13:47:57.057Z,12.80
2019-02-20T13:50:26.629Z,12.80
2019-02-20T13:52:55.910Z,12.80
2019-02-20T13:55:34.013Z,12.80
2019-02-20T13:57:56.235Z,12.70
2019-02-20T14:00:25.533Z,12.70
2019-02-20T14:02:54.903Z,12.70
2019-02-20T14:05:24.540Z,12.70
2019-02-20T14:07:53.823Z,12.70
2019-02-20T14:10:23.199Z,12.70
2019-02-20T14:12:52.470Z,12.80
2019-02-20T14:15:21.778Z,12.90
2019-02-20T14:17:51.119Z,12.90
2019-02-20T14:20:20.917Z,13.00
2019-02-20T14:22:50.204Z,13.00
2019-02-20T14:25:19.725Z,13.00
2019-02-20T14:27:49.924Z,12.90
2019-02-20T14:30:19.203Z,12.90
2019-02-20T14:32:48.597Z,12.90
2019-02-20T14:35:17.868Z,12.80
2019-02-20T14:37:47.202Z,12.80
2019-02-20T14:40:16.830Z,12.80
2019-02-20T14:42:46.132Z,12.70
2019-02-20T14:45:16.536Z,12.80
2019-02-20T14:47:45.912Z,12.80
2019-02-20T14:50:15.199Z,12.80
2019-02-20T14:52:44.649Z,12.80
2019-02-20T14:55:14.035Z,12.70
2019-02-20T14:57:43.388Z,12.70
2019-02-20T15:00:13.347Z,12.80
2019-02-20T15:02:42.679Z,12.70
2019-02-20T15:05:12.206Z,12.60
2019-02-20T15:07:41.559Z,12.50
2019-02-20T15:10:10.889Z,12.40
2019-02-20T15:12:40.484Z,12.40
2019-02-20T15:15:10.790Z,12.40
2019-02-20T15:17:40.391Z,12.40
2019-02-20T15:20:11.102Z,12.40
2019-02-20T15:22:40.591Z,12.40
2019-02-20T15:25:10.331Z,12.30
2019-02-20T15:27:39.637Z,12.40
2019-02-20T15:30:12.280Z,12.30
2019-02-20T15:32:41.859Z,12.20
2019-02-20T15:35:11.224Z,12.20
2019-02-20T15:37:40.482Z,12.20
2019-02-20T15:40:09.840Z,12.20
2019-02-20T15:42:39.224Z,12.20
2019-02-20T15:45:08.741Z,12.10
2019-02-20T15:47:38.028Z,12.10
2019-02-20T15:50:08.876Z,12.00
2019-02-20T15:52:39.699Z,12.10
2019-02-20T15:55:11.444Z,12.00
2019-02-20T15:57:41.012Z,12.00
2019-02-20T16:00:12.152Z,12.00
2019-02-20T16:02:41.601Z,11.90
2019-02-20T16:05:11.072Z,12.00
2019-02-20T16:07:40.705Z,12.00
2019-02-20T16:10:10.454Z,12.00
2019-02-20T16:12:39.800Z,12.00
2019-02-20T16:15:09.289Z,11.90
2019-02-20T16:17:38.761Z,11.80
2019-02-20T16:20:09.431Z,11.80
2019-02-20T16:22:38.633Z,11.70
2019-02-20T16:25:09.983Z,11.50
2019-02-20T16:27:46.807Z,11.40
2019-02-20T16:30:11.451Z,11.30
2019-02-20T16:32:41.255Z,11.20
2019-02-20T16:35:11.239Z,11.10
2019-02-20T16:37:40.573Z,11.10
2019-02-20T16:40:10.991Z,11.00
2019-02-20T16:42:40.443Z,10.90
2019-02-20T16:45:16.923Z,10.80
2019-02-20T16:47:46.286Z,10.70
2019-02-20T16:50:15.975Z,10.70
2019-02-20T16:52:45.413Z,10.60
2019-02-20T16:55:19.135Z,10.50
2019-02-20T16:57:45.725Z,10.40
2019-02-20T17:00:15.551Z,10.30
2019-02-20T17:02:44.951Z,10.20
2019-02-20T17:05:15.954Z,10.10
2019-02-20T17:07:45.446Z,10.00
2019-02-20T17:10:15.195Z,10.00
2019-02-20T17:12:45.003Z,9.90
2019-02-20T17:15:14.874Z,9.90
2019-02-20T17:17:44.263Z,9.90
2019-02-20T17:20:14.307Z,9.80
2019-02-20T17:22:43.747Z,9.70
2019-02-20T17:25:13.434Z,9.70
2019-02-20T17:27:42.820Z,9.60
2019-02-20T17:30:13.225Z,9.60
2019-02-20T17:32:42.680Z,9.50
2019-02-20T17:35:12.082Z,9.40
2019-02-20T17:37:41.564Z,9.40
2019-02-20T17:40:11.345Z,9.30
2019-02-20T17:42:40.677Z,9.30
2019-02-20T17:45:11.153Z,9.30
2019-02-20T17:47:40.545Z,9.30
2019-02-20T17:50:12.429Z,9.30
2019-02-20T17:52:41.809Z,9.30
2019-02-20T17:55:11.473Z,9.30
2019-02-20T17:57:40.929Z,9.20
2019-02-20T18:00:15.704Z,9.20
2019-02-20T18:02:45.097Z,9.20
2019-02-20T18:05:14.575Z,9.10
2019-02-20T18:07:49.747Z,9.10
2019-02-20T18:10:14.979Z,9.20
2019-02-20T18:12:44.375Z,9.20
2019-02-20T18:15:14.020Z,9.30
2019-02-20T18:17:43.319Z,9.20
2019-02-20T18:20:12.558Z,9.30
2019-02-20T18:22:43.725Z,9.20
2019-02-20T18:25:13.123Z,9.20
2019-02-20T18:27:42.462Z,9.30
2019-02-20T18:30:12.135Z,9.30
2019-02-20T18:32:41.784Z,9.30
2019-02-20T18:35:30.347Z,9.30
2019-02-20T18:37:59.872Z,9.30
2019-02-20T18:40:29.214Z,9.30
2019-02-20T18:42:58.470Z,9.30
2019-02-20T18:45:27.756Z,9.30
2019-02-20T18:47:56.969Z,9.30
2019-02-20T18:50:27.774Z,9.20
2019-02-20T18:52:57.357Z,9.30
2019-02-20T18:55:26.635Z,9.20
2019-02-20T18:57:55.931Z,9.30
2019-02-20T19:00:44.386Z,9.20
2019-02-20T19:03:13.784Z,9.30
2019-02-20T19:05:43.147Z,9.20
2019-02-20T19:08:38.126Z,9.20
2019-02-20T19:11:12.379Z,9.20
2019-02-20T19:14:18.135Z,9.10
2019-02-20T19:17:21.845Z,9.10
2019-02-20T19:20:26.100Z,9.00
2019-02-20T19:23:22.917Z,8.80
2019-02-20T19:26:36.396Z,8.70
2019-02-20T19:29:44.922Z,8.60
2019-02-20T19:32:42.434Z,8.60
2019-02-20T19:35:58.470Z,8.50
2019-02-20T19:39:02.646Z,8.50
2019-02-20T19:42:18.544Z,8.40
2019-02-20T19:45:43.800Z,8.40
2019-02-20T19:49:00.357Z,8.40
2019-02-20T19:52:32.541Z,8.30
2019-02-20T19:55:36.762Z,8.20
2019-02-20T19:58:22.932Z,8.10
2019-02-20T20:01:45.582Z,8.10
2019-02-20T20:04:56.607Z,8.00
2019-02-20T20:08:03.068Z,8.00
2019-02-20T20:11:16.811Z,8.00
2019-02-20T20:14:25.988Z,8.00
2019-02-20T20:17:32.470Z,8.00
2019-02-20T20:20:20.487Z,8.00
2019-02-20T20:23:33.481Z,8.00
2019-02-20T20:26:24.922Z,8.00
2019-02-20T20:29:25.618Z,7.90
2019-02-20T20:32:14.613Z,7.90
2019-02-20T20:35:40.057Z,7.90
2019-02-20T20:38:30.716Z,7.80
2019-02-20T20:41:35.528Z,7.80
2019-02-20T20:44:46.078Z,7.80
2019-02-20T20:47:25.302Z,7.80
2019-02-20T20:50:09.380Z,7.80
2019-02-20T20:53:15.930Z,7.80
2019-02-20T20:56:17.072Z,7.80
2019-02-20T20:59:30.309Z,7.80
2019-02-20T21:02:16.981Z,7.80
2019-02-20T21:05:28.525Z,7.70
2019-02-20T21:08:52.695Z,7.70
2019-02-20T21:12:01.000Z,7.70
2019-02-20T21:15:04.800Z,7.60
2019-02-20T21:18:05.302Z,7.60
2019-02-20T21:21:04.939Z,7.60
2019-02-20T21:24:11.101Z,7.60
2019-02-20T21:27:05.551Z,7.50
2019-02-20T21:29:52.133Z,7.50
2019-02-20T21:32:57.617Z,7.40
2019-02-20T21:35:54.202Z,7.30
2019-02-20T21:39:22.809Z,7.30
2019-02-20T21:42:04.742Z,7.30
2019-02-20T21:45:08.195Z,7.30
2019-02-20T21:48:03.842Z,7.20
2019-02-20T21:50:57.091Z,7.20
2019-02-20T21:53:51.650Z,7.10
2019-02-20T21:56:51.772Z,7.10
2019-02-20T21:59:57.985Z,7.10
2019-02-20T22:03:05.175Z,7.10
2019-02-20T22:05:58.529Z,7.00
2019-02-20T22:09:14.970Z,7.00
2019-02-20T22:12:09.751Z,7.00
2019-02-20T22:14:58.023Z,7.00
2019-02-20T22:18:01.050Z,6.90
2019-02-20T22:21:22.640Z,6.90
2019-02-20T22:24:17.151Z,6.80
2019-02-20T22:27:08.045Z,6.80
2019-02-20T22:30:13.467Z,6.80
2019-02-20T22:33:13.391Z,6.80
2019-02-20T22:36:29.323Z,6.70
2019-02-20T22:39:36.815Z,6.70
2019-02-20T22:43:06.349Z,6.80
2019-02-20T22:46:18.729Z,6.70
2019-02-20T22:49:23.305Z,6.60
2019-02-20T22:52:36.721Z,6.70
2019-02-20T22:55:38.251Z,6.70
2019-02-20T22:58:31.631Z,6.60
2019-02-20T23:01:37.916Z,6.60
2019-02-20T23:04:14.183Z,6.60
2019-02-20T23:07:27.547Z,6.60
2019-02-20T23:10:13.037Z,6.60
2019-02-20T23:13:26.141Z,6.60
2019-02-20T23:15:55.426Z,6.50
2019-02-20T23:18:24.728Z,6.50
2019-02-20T23:20:54.022Z,6.40
2019-02-20T23:23:23.222Z,6.40
2019-02-20T23:25:52.472Z,6.30
2019-02-20T23:28:21.776Z,6.30
2019-02-20T23:30:51.000Z,6.20
2019-02-20T23:33:20.826Z,6.10
2019-02-20T23:35:50.124Z,6.20
2019-02-20T23:38:19.411Z,6.20
2019-02-20T23:40:48.705Z,6.20
2019-02-20T23:43:18.029Z,6.20
2019-02-20T23:45:47.359Z,6.10
2019-02-20T23:48:16.618Z,6.10
2019-02-20T23:50:45.895Z,6.00
2019-02-20T23:53:15.275Z,6.00
2019-02-20T23:55:44.568Z,5.90
2019-02-20T23:58:13.871Z,5.90
